createdAt,value
2019-05-19T00:01:24.181Z,88.99
2019-05-19T00:04:37.762Z,88.92
2019-05-19T00:07:51.552Z,89.01
2019-05-19T00:11:05.043Z,88.81
2019-05-19T00:14:18.549Z,88.90
2019-05-19T00:17:32.093Z,88.84
2019-05-19T00:20:45.935Z,88.87
2019-05-19T00:24:00.065Z,88.87
2019-05-19T00:27:13.806Z,88.86
2019-05-19T00:30:27.698Z,88.80
2019-05-19T00:33:41.168Z,89.12
2019-05-19T00:36:55.282Z,89.41
2019-05-19T00:40:08.978Z,89.45
2019-05-19T00:43:22.686Z,89.28
2019-05-19T00:46:36.394Z,89.66
2019-05-19T00:49:50.147Z,89.86
2019-05-19T00:53:03.863Z,89.84
2019-05-19T00:56:18.695Z,89.59
2019-05-19T00:59:34.010Z,89.80
2019-05-19T01:02:47.584Z,89.70
2019-05-19T01:06:01.171Z,89.97
2019-05-19T01:09:14.654Z,89.92
2019-05-19T01:12:28.163Z,89.76
2019-05-19T01:15:41.746Z,89.90
2019-05-19T01:18:55.220Z,89.77
2019-05-19T01:22:09.309Z,89.66
2019-05-19T01:25:23.056Z,89.50
2019-05-19T01:28:36.877Z,89.37
2019-05-19T01:31:50.557Z,89.47
2019-05-19T01:35:04.513Z,89.51
2019-05-19T01:38:18.001Z,89.52
2019-05-19T01:41:31.770Z,89.66
2019-05-19T01:44:45.244Z,89.69
2019-05-19T01:47:58.836Z,89.84
2019-05-19T01:51:12.294Z,89.83
2019-05-19T01:54:25.793Z,89.45
2019-05-19T01:57:39.275Z,89.39
2019-05-19T02:00:53.118Z,89.39
2019-05-19T02:04:06.705Z,89.75
2019-05-19T02:07:20.519Z,90.20
2019-05-19T02:10:33.986Z,90.30
2019-05-19T02:13:47.486Z,90.27
2019-05-19T02:17:01.068Z,90.44
2019-05-19T02:20:15.164Z,90.20
2019-05-19T02:23:28.932Z,90.14
2019-05-19T02:26:42.543Z,89.99
2019-05-19T02:29:56.009Z,90.04
2019-05-19T02:33:09.497Z,90.06
2019-05-19T02:36:23.058Z,89.86
2019-05-19T02:39:36.539Z,89.70
2019-05-19T02:42:52.679Z,89.67
2019-05-19T02:46:07.396Z,89.62
2019-05-19T02:49:22.891Z,89.79
2019-05-19T02:52:38.777Z,89.60
2019-05-19T02:55:53.673Z,89.52
2019-05-19T02:59:08.259Z,89.73
2019-05-19T03:02:21.749Z,90.25
2019-05-19T03:05:36.105Z,90.51
2019-05-19T03:08:49.612Z,90.41
2019-05-19T03:12:03.297Z,90.23
2019-05-19T03:15:16.775Z,90.21
2019-05-19T03:18:30.270Z,89.96
2019-05-19T03:21:43.850Z,89.89
2019-05-19T03:24:57.627Z,90.25
2019-05-19T03:28:11.210Z,90.23
2019-05-19T03:31:34.566Z,90.49
2019-05-19T03:34:48.066Z,90.52
2019-05-19T03:38:01.622Z,90.52
2019-05-19T03:41:15.517Z,90.42
2019-05-19T03:44:29.016Z,90.51
2019-05-19T03:47:42.746Z,90.34
2019-05-19T03:50:56.353Z,90.15
2019-05-19T03:54:09.831Z,89.88
2019-05-19T03:57:23.694Z,89.80
2019-05-19T04:00:37.152Z,89.90
2019-05-19T04:03:50.927Z,90.13
2019-05-19T04:07:04.842Z,90.19
2019-05-19T04:10:18.430Z,89.92
2019-05-19T04:13:32.222Z,89.62
2019-05-19T04:16:49.271Z,89.66
2019-05-19T04:20:03.698Z,89.24
2019-05-19T04:23:17.502Z,89.68
2019-05-19T04:26:31.000Z,89.58
2019-05-19T04:29:44.490Z,89.45
2019-05-19T04:32:57.991Z,89.49
2019-05-19T04:36:11.452Z,89.08
2019-05-19T04:39:24.939Z,89.49
2019-05-19T04:42:38.479Z,89.33
2019-05-19T04:45:52.090Z,88.93
2019-05-19T04:49:06.222Z,88.62
2019-05-19T04:52:19.726Z,88.50
2019-05-19T04:55:33.426Z,88.36
2019-05-19T04:58:47.170Z,88.57
2019-05-19T05:02:00.730Z,88.23
2019-05-19T05:05:14.407Z,88.14
2019-05-19T05:08:30.653Z,87.96
2019-05-19T05:11:43.620Z,87.72
2019-05-19T05:16:37.476Z,87.25
2019-05-19T05:19:51.184Z,87.65
2019-05-19T05:23:04.666Z,87.41
2019-05-19T05:26:18.130Z,87.31
2019-05-19T05:29:31.863Z,87.48
2019-05-19T05:32:45.330Z,87.56
2019-05-19T05:35:59.047Z,87.34
2019-05-19T05:39:12.534Z,86.91
2019-05-19T05:42:26.287Z,86.50
2019-05-19T05:45:40.105Z,86.56
2019-05-19T05:48:53.586Z,86.67
2019-05-19T05:52:07.051Z,86.75
2019-05-19T05:55:20.516Z,86.61
2019-05-19T05:58:34.090Z,86.45
2019-05-19T06:01:47.866Z,86.29
2019-05-19T06:05:01.821Z,86.53
2019-05-19T06:08:15.319Z,86.15
2019-05-19T06:11:29.122Z,86.26
2019-05-19T06:14:42.601Z,86.63
2019-05-19T06:17:56.409Z,86.52
2019-05-19T06:21:09.997Z,87.64
2019-05-19T06:24:23.486Z,88.05
2019-05-19T06:27:36.951Z,88.07
2019-05-19T06:30:50.538Z,88.35
2019-05-19T06:34:04.097Z,87.95
2019-05-19T06:37:17.605Z,87.79
2019-05-19T06:40:31.270Z,87.35
2019-05-19T06:43:45.100Z,87.21
2019-05-19T06:46:58.895Z,86.98
2019-05-19T06:50:13.146Z,87.10
2019-05-19T06:53:27.199Z,86.76
2019-05-19T06:56:41.116Z,86.69
2019-05-19T06:59:54.975Z,86.67
2019-05-19T07:03:08.802Z,86.19
2019-05-19T07:06:22.426Z,86.18
2019-05-19T07:09:36.122Z,86.14
2019-05-19T07:12:49.904Z,85.21
2019-05-19T07:16:03.716Z,84.18
2019-05-19T07:19:17.434Z,83.64
2019-05-19T07:22:31.426Z,82.94
2019-05-19T07:25:44.998Z,82.50
2019-05-19T07:28:59.085Z,82.90
2019-05-19T07:32:12.905Z,83.26
2019-05-19T07:35:26.804Z,82.48
2019-05-19T07:38:40.687Z,81.75
2019-05-19T07:41:54.192Z,81.86
2019-05-19T07:45:10.947Z,81.56
2019-05-19T07:48:24.437Z,81.28
2019-05-19T07:51:38.221Z,80.86
2019-05-19T07:54:51.724Z,78.84
2019-05-19T07:58:05.185Z,78.88
2019-05-19T08:01:18.805Z,79.31
2019-05-19T08:04:32.331Z,79.74
2019-05-19T08:07:45.868Z,80.03
2019-05-19T08:10:59.355Z,78.50
2019-05-19T08:14:13.112Z,77.53
2019-05-19T08:17:26.646Z,76.56
2019-05-19T08:20:40.272Z,75.77
2019-05-19T08:24:00.443Z,75.50
2019-05-19T08:27:09.646Z,74.17
2019-05-19T08:30:23.303Z,74.08
2019-05-19T08:33:36.929Z,74.35
2019-05-19T08:36:50.490Z,73.08
2019-05-19T08:40:04.488Z,74.41
2019-05-19T08:43:18.411Z,70.57
2019-05-19T08:46:32.011Z,70.31
2019-05-19T08:49:45.627Z,70.09
2019-05-19T08:52:59.531Z,67.36
2019-05-19T08:56:13.034Z,68.30
2019-05-19T08:59:26.646Z,63.16
2019-05-19T09:02:40.287Z,64.87
2019-05-19T09:05:53.818Z,64.20
2019-05-19T09:09:07.414Z,58.83
2019-05-19T09:12:20.975Z,59.37
2019-05-19T09:15:34.503Z,59.44
2019-05-19T09:18:48.152Z,63.35
2019-05-19T09:22:01.701Z,62.25
2019-05-19T09:25:15.320Z,60.72
2019-05-19T09:28:28.978Z,64.03
2019-05-19T09:31:42.523Z,65.96
2019-05-19T09:34:56.018Z,63.31
2019-05-19T09:38:10.199Z,63.34
2019-05-19T09:41:23.981Z,63.87
2019-05-19T09:44:37.474Z,63.36
2019-05-19T09:47:51.200Z,63.72
2019-05-19T09:51:05.021Z,65.03
2019-05-19T09:54:18.863Z,65.22
2019-05-19T09:57:32.797Z,63.41
2019-05-19T10:00:46.544Z,62.85
2019-05-19T10:04:00.185Z,63.39
2019-05-19T10:07:14.050Z,63.77
2019-05-19T10:10:54.729Z,63.25
2019-05-19T10:14:08.433Z,65.42
2019-05-19T10:17:22.101Z,63.60
2019-05-19T10:20:36.191Z,63.40
2019-05-19T10:23:49.863Z,58.60
2019-05-19T10:27:03.789Z,59.70
2019-05-19T10:30:17.906Z,60.87
2019-05-19T10:33:31.484Z,59.83
2019-05-19T10:36:45.230Z,62.00
2019-05-19T10:39:58.742Z,60.35
2019-05-19T10:43:12.358Z,60.05
2019-05-19T10:46:26.697Z,60.27
2019-05-19T10:49:42.987Z,59.18
2019-05-19T10:52:55.981Z,54.74
2019-05-19T10:56:09.481Z,56.95
2019-05-19T10:59:23.224Z,55.98
2019-05-19T11:02:36.733Z,55.45
2019-05-19T11:05:50.273Z,55.90
2019-05-19T11:09:05.565Z,55.35
2019-05-19T11:12:19.496Z,54.22
2019-05-19T11:15:33.822Z,54.70
2019-05-19T11:18:47.765Z,52.85
2019-05-19T11:22:01.338Z,54.33
2019-05-19T11:25:15.684Z,54.38
2019-05-19T11:28:29.284Z,53.66
2019-05-19T11:31:43.130Z,52.88
2019-05-19T11:34:56.811Z,50.61
2019-05-19T11:38:10.458Z,51.87
2019-05-19T11:41:24.123Z,55.12
2019-05-19T11:44:37.727Z,54.64
2019-05-19T11:47:51.335Z,54.95
2019-05-19T11:51:05.090Z,53.16
2019-05-19T11:54:18.782Z,52.53
2019-05-19T11:57:32.312Z,53.78
2019-05-19T12:00:45.800Z,52.24
2019-05-19T12:03:59.398Z,50.61
2019-05-19T12:07:12.944Z,52.28
2019-05-19T12:10:26.575Z,51.89
2019-05-19T12:16:38.123Z,53.62
2019-05-19T12:19:52.106Z,53.93
2019-05-19T12:23:05.875Z,51.44
2019-05-19T12:26:23.044Z,51.45
2019-05-19T12:29:35.262Z,50.88
2019-05-19T12:32:49.025Z,48.47
2019-05-19T12:36:06.588Z,49.74
2019-05-19T12:39:20.137Z,47.86
2019-05-19T12:42:33.692Z,47.24
2019-05-19T12:45:47.514Z,47.94
2019-05-19T12:49:01.305Z,47.64
2019-05-19T12:52:14.848Z,48.42
2019-05-19T12:55:28.473Z,48.23
2019-05-19T12:58:42.101Z,48.56
2019-05-19T13:01:55.651Z,47.53
2019-05-19T13:05:09.800Z,46.68
2019-05-19T13:08:23.487Z,46.17
2019-05-19T13:11:37.190Z,45.50
2019-05-19T13:14:50.852Z,44.70
2019-05-19T13:18:04.378Z,44.29
2019-05-19T13:21:18.146Z,44.81
2019-05-19T13:24:32.027Z,46.20
2019-05-19T13:27:45.612Z,42.97
2019-05-19T13:30:59.228Z,44.23
2019-05-19T13:34:12.890Z,42.64
2019-05-19T13:37:26.968Z,40.91
2019-05-19T13:40:40.822Z,41.57
2019-05-19T13:43:54.558Z,41.68
2019-05-19T13:47:08.542Z,42.53
2019-05-19T13:50:22.413Z,44.22
2019-05-19T13:53:35.942Z,40.18
2019-05-19T13:56:49.845Z,39.53
2019-05-19T14:00:04.254Z,40.73
2019-05-19T14:03:18.646Z,40.38
2019-05-19T14:06:32.340Z,41.21
2019-05-19T14:09:46.018Z,40.77
2019-05-19T14:12:59.669Z,40.88
2019-05-19T14:16:13.160Z,43.48
2019-05-19T14:19:26.844Z,44.37
2019-05-19T14:22:40.545Z,44.95
2019-05-19T14:25:54.155Z,44.89
2019-05-19T14:29:09.735Z,44.51
2019-05-19T14:32:23.914Z,45.37
2019-05-19T14:35:37.448Z,46.41
2019-05-19T14:38:59.886Z,48.61
2019-05-19T14:42:17.135Z,46.97
2019-05-19T14:45:30.979Z,47.42
2019-05-19T14:48:46.017Z,46.96
2019-05-19T14:52:00.148Z,47.56
2019-05-19T14:55:14.002Z,44.51
2019-05-19T14:58:27.641Z,41.96
2019-05-19T15:01:41.193Z,40.45
2019-05-19T15:04:54.995Z,40.98
2019-05-19T15:08:08.715Z,41.50
2019-05-19T15:11:22.459Z,41.62
2019-05-19T15:14:36.019Z,40.48
2019-05-19T15:17:49.834Z,41.57
2019-05-19T15:21:03.472Z,39.05
2019-05-19T15:24:17.325Z,40.42
2019-05-19T15:27:31.032Z,40.69
2019-05-19T15:30:44.956Z,38.63
2019-05-19T15:33:58.727Z,38.25
2019-05-19T15:37:12.435Z,38.91
2019-05-19T15:40:26.197Z,37.63
2019-05-19T15:43:40.221Z,40.59
2019-05-19T15:46:53.862Z,40.20
2019-05-19T15:50:08.422Z,42.40
2019-05-19T15:53:22.605Z,42.13
2019-05-19T15:56:36.354Z,43.55
2019-05-19T15:59:50.326Z,40.15
2019-05-19T16:03:04.295Z,39.19
2019-05-19T16:06:18.070Z,41.23
2019-05-19T16:09:31.886Z,41.12
2019-05-19T16:12:45.883Z,42.10
2019-05-19T16:15:59.655Z,42.68
2019-05-19T16:19:13.585Z,42.49
2019-05-19T16:22:30.273Z,43.62
2019-05-19T16:25:44.087Z,44.91
2019-05-19T16:28:57.769Z,45.51
2019-05-19T16:32:11.435Z,46.33
2019-05-19T16:35:25.047Z,45.35
2019-05-19T16:38:38.975Z,46.14
2019-05-19T16:41:52.854Z,47.47
2019-05-19T16:45:07.034Z,46.49
2019-05-19T16:48:23.300Z,48.31
2019-05-19T16:51:36.303Z,48.57
2019-05-19T16:55:09.870Z,48.71
2019-05-19T16:58:23.681Z,48.66
2019-05-19T17:01:37.677Z,48.60
2019-05-19T17:04:51.277Z,49.02
2019-05-19T17:08:05.045Z,49.19
2019-05-19T17:11:18.940Z,50.03
2019-05-19T17:14:32.794Z,50.36
2019-05-19T17:17:46.599Z,51.27
2019-05-19T17:21:00.426Z,51.43
2019-05-19T17:24:15.345Z,52.73
2019-05-19T17:27:29.076Z,53.68
2019-05-19T17:30:42.884Z,52.96
2019-05-19T17:34:02.637Z,53.43
2019-05-19T17:37:16.187Z,51.88
2019-05-19T17:40:30.062Z,55.46
2019-05-19T17:43:43.747Z,55.86
2019-05-19T17:46:57.274Z,55.53
2019-05-19T17:50:11.426Z,54.93
2019-05-19T17:53:25.169Z,55.33
2019-05-19T17:56:39.333Z,56.04
2019-05-19T17:59:53.903Z,56.23
2019-05-19T18:03:07.775Z,56.12
2019-05-19T18:06:21.454Z,57.05
2019-05-19T18:09:35.134Z,58.29
2019-05-19T18:12:48.609Z,59.10
2019-05-19T18:16:02.192Z,60.32
2019-05-19T18:19:15.712Z,61.94
2019-05-19T18:22:29.212Z,62.88
2019-05-19T18:25:42.834Z,63.62
2019-05-19T18:28:56.335Z,64.51
2019-05-19T18:32:10.054Z,64.76
2019-05-19T18:35:23.855Z,65.49
2019-05-19T18:38:37.453Z,67.33
2019-05-19T18:41:50.975Z,67.73
2019-05-19T18:45:04.770Z,68.32
2019-05-19T18:48:18.423Z,69.24
2019-05-19T18:51:32.151Z,69.74
2019-05-19T18:54:45.675Z,70.67
2019-05-19T18:57:59.473Z,71.02
2019-05-19T19:01:13.186Z,71.59
2019-05-19T19:04:26.811Z,72.24
2019-05-19T19:07:49.096Z,73.22
2019-05-19T19:11:02.810Z,73.97
2019-05-19T19:14:16.456Z,74.45
2019-05-19T19:17:29.972Z,74.48
2019-05-19T19:20:43.869Z,75.15
2019-05-19T19:23:57.490Z,75.90
2019-05-19T19:27:11.005Z,76.55
2019-05-19T19:30:26.569Z,77.00
2019-05-19T19:33:40.083Z,77.21
2019-05-19T19:36:53.603Z,77.14
2019-05-19T19:40:07.715Z,77.50
2019-05-19T19:43:21.249Z,78.13
2019-05-19T19:46:34.747Z,78.88
2019-05-19T19:49:48.231Z,78.59
2019-05-19T19:53:01.749Z,78.79
2019-05-19T19:56:15.254Z,79.41
2019-05-19T19:59:29.104Z,79.28
2019-05-19T20:02:42.631Z,79.91
2019-05-19T20:05:56.421Z,80.30
2019-05-19T20:09:10.032Z,80.31
2019-05-19T20:12:23.968Z,80.40
2019-05-19T20:15:37.596Z,80.34
2019-05-19T20:18:51.110Z,80.82
2019-05-19T20:22:04.838Z,80.85
2019-05-19T20:25:18.340Z,81.48
2019-05-19T20:28:32.128Z,81.35
2019-05-19T20:31:45.639Z,81.41
2019-05-19T20:34:59.161Z,82.06
2019-05-19T20:38:12.654Z,81.96
2019-05-19T20:41:26.131Z,81.71
2019-05-19T20:44:39.619Z,82.17
2019-05-19T20:47:53.117Z,82.49
2019-05-19T20:51:06.834Z,82.65
2019-05-19T20:54:20.637Z,83.00
2019-05-19T20:57:34.554Z,83.33
2019-05-19T21:00:51.223Z,83.19
2019-05-19T21:04:03.507Z,83.33
2019-05-19T21:07:17.019Z,83.79
2019-05-19T21:10:30.788Z,84.24
2019-05-19T21:16:38.325Z,84.46
2019-05-19T21:19:51.885Z,84.62
2019-05-19T21:23:05.904Z,84.88
2019-05-19T21:26:19.406Z,84.28
2019-05-19T21:29:35.758Z,84.43
2019-05-19T21:32:49.238Z,84.20
2019-05-19T21:36:02.922Z,84.37
2019-05-19T21:39:16.414Z,84.62
2019-05-19T21:42:29.931Z,84.54
2019-05-19T21:45:43.447Z,84.55
2019-05-19T21:48:56.931Z,85.18
2019-05-19T21:52:10.411Z,85.00
2019-05-19T21:55:23.917Z,84.68
2019-05-19T21:58:37.405Z,84.34
2019-05-19T22:01:51.015Z,84.68
2019-05-19T22:05:05.823Z,84.91
2019-05-19T22:08:19.843Z,84.71
2019-05-19T22:11:33.337Z,84.37
2019-05-19T22:14:47.254Z,84.26
2019-05-19T22:18:00.838Z,84.96
2019-05-19T22:21:14.328Z,85.32
2019-05-19T22:24:27.790Z,85.88
2019-05-19T22:27:41.297Z,85.50
2019-05-19T22:30:54.941Z,85.51
2019-05-19T22:34:08.442Z,85.50
2019-05-19T22:37:22.198Z,84.67
2019-05-19T22:40:35.933Z,84.73
2019-05-19T22:43:49.440Z,84.68
2019-05-19T22:47:03.320Z,84.95
2019-05-19T22:50:17.100Z,84.77
2019-05-19T22:53:32.611Z,85.22
2019-05-19T22:56:46.240Z,85.17
2019-05-19T22:59:59.746Z,84.85
2019-05-19T23:03:13.271Z,84.72
2019-05-19T23:06:26.758Z,84.84
2019-05-19T23:09:40.260Z,84.92
2019-05-19T23:12:53.850Z,84.78
2019-05-19T23:16:07.430Z,84.43
2019-05-19T23:19:20.945Z,84.37
2019-05-19T23:22:34.520Z,84.53
2019-05-19T23:25:48.432Z,85.43
2019-05-19T23:29:02.458Z,85.62
2019-05-19T23:32:16.296Z,85.56
2019-05-19T23:35:30.324Z,84.98
2019-05-19T23:38:43.851Z,84.81
2019-05-19T23:41:57.607Z,84.87
2019-05-19T23:45:11.497Z,84.77
2019-05-19T23:48:25.085Z,85.06
2019-05-19T23:51:38.577Z,85.11
2019-05-19T23:54:52.061Z,84.64
2019-05-19T23:58:05.564Z,84.95
